createdAt,value
2022-12-25T00:01:06.758Z,6.28
2022-12-25T00:03:33.320Z,6.32
2022-12-25T00:05:59.878Z,6.36
2022-12-25T00:08:26.350Z,6.37
2022-12-25T00:11:00.772Z,6.41
2022-12-25T00:13:27.314Z,6.46
2022-12-25T00:15:54.056Z,6.49
2022-12-25T00:18:20.855Z,6.51
2022-12-25T00:20:59.673Z,6.56
2022-12-25T00:23:26.447Z,6.59
2022-12-25T00:25:53.811Z,6.65
2022-12-25T00:28:21.724Z,6.69
2022-12-25T00:30:48.403Z,6.73
2022-12-25T00:33:15.731Z,6.77
2022-12-25T00:35:42.942Z,6.80
2022-12-25T00:38:09.941Z,6.82
2022-12-25T00:40:43.974Z,6.84
2022-12-25T00:43:10.492Z,6.87
2022-12-25T00:45:37.113Z,6.92
2022-12-25T00:48:03.825Z,6.94
2022-12-25T00:50:30.238Z,6.98
2022-12-25T00:52:57.658Z,6.98
2022-12-25T00:55:24.134Z,7.02
2022-12-25T00:57:50.641Z,7.06
2022-12-25T01:00:17.241Z,7.08
2022-12-25T01:02:43.926Z,7.10
2022-12-25T01:05:10.453Z,7.11
2022-12-25T01:07:36.908Z,7.13
2022-12-25T01:10:22.065Z,7.17
2022-12-25T01:12:49.360Z,7.18
2022-12-25T01:15:16.083Z,7.19
2022-12-25T01:17:43.548Z,7.19
2022-12-25T01:20:12.427Z,7.21
2022-12-25T01:22:38.883Z,7.23
2022-12-25T01:25:07.069Z,7.25
2022-12-25T01:27:33.675Z,7.24
2022-12-25T01:30:00.144Z,7.26
2022-12-25T01:32:26.744Z,7.27
2022-12-25T01:34:56.203Z,7.28
2022-12-25T01:37:24.965Z,7.30
2022-12-25T01:39:51.594Z,7.31
2022-12-25T01:42:20.280Z,7.31
2022-12-25T01:44:46.630Z,7.31
2022-12-25T01:47:14.932Z,7.30
2022-12-25T01:49:44.320Z,7.28
2022-12-25T01:52:20.255Z,7.27
2022-12-25T01:55:00.396Z,7.23
2022-12-25T01:57:30.769Z,7.23
2022-12-25T01:59:59.159Z,7.23
2022-12-25T02:02:27.024Z,7.23
2022-12-25T02:05:30.753Z,7.24
2022-12-25T02:08:01.059Z,7.22
2022-12-25T02:10:27.760Z,7.19
2022-12-25T02:12:54.204Z,7.16
2022-12-25T02:15:25.456Z,7.10
2022-12-25T02:17:59.866Z,7.08
2022-12-25T02:20:50.719Z,7.05
2022-12-25T02:23:49.611Z,7.00
2022-12-25T02:26:28.183Z,6.94
2022-12-25T02:29:05.304Z,6.92
2022-12-25T02:31:55.363Z,6.90
2022-12-25T02:34:31.782Z,6.86
2022-12-25T02:37:06.098Z,6.82
2022-12-25T02:39:59.407Z,6.82
2022-12-25T02:42:52.512Z,6.88
2022-12-25T02:45:56.845Z,6.90
2022-12-25T02:48:45.468Z,6.87
2022-12-25T02:51:34.956Z,6.82
2022-12-25T02:54:24.834Z,6.76
2022-12-25T02:57:12.534Z,6.76
2022-12-25T03:00:02.340Z,6.80
2022-12-25T03:02:51.296Z,6.85
2022-12-25T03:05:42.354Z,6.91
2022-12-25T03:08:14.530Z,6.97
2022-12-25T03:11:03.625Z,7.01
2022-12-25T03:13:36.188Z,7.00
2022-12-25T03:16:21.376Z,6.98
2022-12-25T03:18:47.953Z,6.95
2022-12-25T03:21:33.029Z,6.97
2022-12-25T03:24:21.566Z,7.01
2022-12-25T03:26:57.290Z,7.07
2022-12-25T03:29:44.990Z,7.11
2022-12-25T03:32:22.761Z,7.17
2022-12-25T03:35:17.606Z,7.23
2022-12-25T03:38:16.312Z,7.29
2022-12-25T03:41:09.139Z,7.31
2022-12-25T03:43:57.196Z,7.35
2022-12-25T03:46:45.660Z,7.37
2022-12-25T03:49:40.446Z,7.38
2022-12-25T03:52:28.759Z,7.38
2022-12-25T03:55:15.510Z,7.40
2022-12-25T03:58:00.301Z,7.43
2022-12-25T04:00:45.227Z,7.47
2022-12-25T04:03:30.175Z,7.50
2022-12-25T04:06:15.099Z,7.53
2022-12-25T04:08:59.944Z,7.55
2022-12-25T04:11:44.735Z,7.54
2022-12-25T04:14:29.602Z,7.49
2022-12-25T04:17:18.871Z,7.43
2022-12-25T04:20:03.557Z,7.36
2022-12-25T04:22:48.299Z,7.32
2022-12-25T04:25:33.166Z,7.31
2022-12-25T04:28:22.035Z,7.30
2022-12-25T04:31:07.587Z,7.30
2022-12-25T04:33:52.622Z,7.29
2022-12-25T04:36:19.023Z,7.29
2022-12-25T04:38:45.495Z,7.27
2022-12-25T04:41:13.308Z,7.23
2022-12-25T04:43:39.999Z,7.21
2022-12-25T04:46:06.818Z,7.17
2022-12-25T04:48:35.716Z,7.14
2022-12-25T04:51:19.050Z,7.09
2022-12-25T04:53:46.929Z,7.08
2022-12-25T04:56:13.911Z,7.06
2022-12-25T04:58:40.459Z,7.04
2022-12-25T05:01:07.156Z,7.03
2022-12-25T05:03:34.276Z,7.02
2022-12-25T05:06:01.845Z,6.98
2022-12-25T05:08:29.997Z,6.95
2022-12-25T05:10:56.435Z,6.92
2022-12-25T05:13:23.041Z,6.90
2022-12-25T05:15:49.758Z,6.86
2022-12-25T05:18:16.278Z,6.86
2022-12-25T05:20:42.812Z,6.82
2022-12-25T05:23:11.738Z,6.78
2022-12-25T05:25:41.173Z,6.77
2022-12-25T05:28:07.939Z,6.78
2022-12-25T05:30:34.972Z,6.77
2022-12-25T05:33:02.303Z,6.73
2022-12-25T05:35:28.704Z,6.71
2022-12-25T05:37:55.146Z,6.71
2022-12-25T05:40:21.526Z,6.71
2022-12-25T05:42:47.973Z,6.70
2022-12-25T05:45:14.451Z,6.71
2022-12-25T05:47:40.849Z,6.71
2022-12-25T05:50:08.260Z,6.69
2022-12-25T05:52:35.155Z,6.68
2022-12-25T05:55:01.567Z,6.65
2022-12-25T05:57:29.284Z,6.66
2022-12-25T05:59:55.880Z,6.68
2022-12-25T06:02:22.980Z,6.68
2022-12-25T06:04:49.433Z,6.70
2022-12-25T06:07:15.891Z,6.72
2022-12-25T06:09:42.218Z,6.74
2022-12-25T06:12:09.402Z,6.77
2022-12-25T06:14:36.648Z,6.79
2022-12-25T06:17:03.289Z,6.83
2022-12-25T06:19:29.756Z,6.86
2022-12-25T06:21:56.324Z,6.91
2022-12-25T06:24:23.267Z,6.92
2022-12-25T06:26:50.034Z,6.93
2022-12-25T06:29:16.552Z,6.95
2022-12-25T06:31:43.097Z,6.97
2022-12-25T06:34:10.284Z,6.98
2022-12-25T06:36:38.653Z,7.03
2022-12-25T06:39:05.107Z,7.06
2022-12-25T06:41:31.520Z,7.11
2022-12-25T06:44:00.352Z,7.14
2022-12-25T06:46:29.078Z,7.18
2022-12-25T06:48:56.856Z,7.22
2022-12-25T06:51:28.599Z,7.24
2022-12-25T06:53:55.763Z,7.26
2022-12-25T06:56:25.135Z,7.28
2022-12-25T06:58:57.508Z,7.32
2022-12-25T07:01:28.945Z,7.34
2022-12-25T07:03:58.757Z,7.36
2022-12-25T07:06:25.624Z,7.40
2022-12-25T07:08:52.458Z,7.41
2022-12-25T07:11:18.939Z,7.43
2022-12-25T07:13:45.510Z,7.43
2022-12-25T07:16:12.718Z,7.45
2022-12-25T07:18:39.644Z,7.48
2022-12-25T07:21:12.091Z,7.48
2022-12-25T07:23:38.586Z,7.49
2022-12-25T07:26:05.549Z,7.52
2022-12-25T07:28:32.776Z,7.54
2022-12-25T07:31:04.930Z,7.55
2022-12-25T07:33:32.059Z,7.54
2022-12-25T07:35:58.536Z,7.55
2022-12-25T07:38:24.954Z,7.56
2022-12-25T07:40:51.887Z,7.58
2022-12-25T07:43:18.310Z,7.57
2022-12-25T07:45:44.943Z,7.58
2022-12-25T07:48:16.419Z,7.59
2022-12-25T07:50:43.381Z,7.63
2022-12-25T07:53:09.770Z,7.62
2022-12-25T07:55:36.197Z,7.64
2022-12-25T07:58:02.647Z,7.64
2022-12-25T08:00:32.715Z,7.65
2022-12-25T08:03:00.006Z,7.66
2022-12-25T08:05:26.758Z,7.66
2022-12-25T08:07:57.732Z,7.68
2022-12-25T08:10:24.675Z,7.69
2022-12-25T08:12:51.988Z,7.69
2022-12-25T08:15:18.458Z,7.71
2022-12-25T08:17:45.141Z,7.73
2022-12-25T08:20:11.920Z,7.73
2022-12-25T08:22:38.338Z,7.74
2022-12-25T08:25:05.199Z,7.75
2022-12-25T08:27:49.923Z,7.77
2022-12-25T08:30:16.467Z,7.78
2022-12-25T08:32:42.898Z,7.78
2022-12-25T08:35:09.460Z,7.79
2022-12-25T08:37:35.848Z,7.79
2022-12-25T08:40:02.282Z,7.80
2022-12-25T08:42:28.690Z,7.82
2022-12-25T08:44:55.075Z,7.82
2022-12-25T08:47:21.444Z,7.82
2022-12-25T08:49:47.851Z,7.83
2022-12-25T08:52:15.382Z,7.84
2022-12-25T08:54:41.869Z,7.85
2022-12-25T08:57:08.297Z,7.85
2022-12-25T08:59:34.756Z,7.88
2022-12-25T09:02:01.233Z,7.91
2022-12-25T09:04:27.789Z,7.92
2022-12-25T09:06:54.265Z,7.92
2022-12-25T09:09:20.638Z,7.94
2022-12-25T09:11:49.031Z,7.96
2022-12-25T09:14:15.436Z,7.98
2022-12-25T09:16:41.947Z,7.98
2022-12-25T09:19:08.378Z,8.00
2022-12-25T09:21:36.715Z,8.01
2022-12-25T09:24:04.480Z,8.02
2022-12-25T09:26:30.938Z,8.05
2022-12-25T09:28:57.416Z,8.06
2022-12-25T09:31:23.989Z,8.06
2022-12-25T09:33:51.671Z,8.07
2022-12-25T09:36:18.318Z,8.09
2022-12-25T09:38:44.780Z,8.10
2022-12-25T09:41:32.531Z,8.11
2022-12-25T09:44:07.761Z,8.13
2022-12-25T09:46:55.855Z,8.13
2022-12-25T09:49:48.359Z,8.15
2022-12-25T09:52:19.877Z,8.18
2022-12-25T09:54:49.193Z,8.20
2022-12-25T09:57:16.039Z,8.22
2022-12-25T09:59:44.166Z,8.24
2022-12-25T10:02:29.326Z,8.27
2022-12-25T10:04:58.856Z,8.27
2022-12-25T10:07:55.065Z,8.26
2022-12-25T10:10:36.518Z,8.26
2022-12-25T10:13:26.795Z,8.27
2022-12-25T10:16:23.805Z,8.26
2022-12-25T10:19:13.280Z,8.25
2022-12-25T10:21:40.899Z,8.25
2022-12-25T10:24:39.477Z,8.24
2022-12-25T10:27:15.214Z,8.26
2022-12-25T10:29:43.613Z,8.28
2022-12-25T10:32:10.341Z,8.30
2022-12-25T10:34:41.158Z,8.32
2022-12-25T10:37:11.547Z,8.32
2022-12-25T10:39:45.878Z,8.32
2022-12-25T10:42:28.510Z,8.32
2022-12-25T10:44:56.627Z,8.33
2022-12-25T10:47:25.757Z,8.34
2022-12-25T10:49:52.839Z,8.35
2022-12-25T10:52:28.300Z,8.36
2022-12-25T10:54:55.593Z,8.38
2022-12-25T10:57:24.258Z,8.35
2022-12-25T10:59:55.925Z,8.36
2022-12-25T11:02:29.877Z,8.35
2022-12-25T11:05:25.105Z,8.36
2022-12-25T11:07:54.718Z,8.36
2022-12-25T11:10:24.912Z,8.37
2022-12-25T11:12:52.907Z,8.41
2022-12-25T11:15:36.648Z,8.41
2022-12-25T11:18:18.014Z,8.40
2022-12-25T11:20:55.914Z,8.40
2022-12-25T11:23:24.550Z,8.37
2022-12-25T11:26:01.547Z,8.37
2022-12-25T11:28:30.287Z,8.35
2022-12-25T11:31:08.462Z,8.35
2022-12-25T11:33:41.762Z,8.41
2022-12-25T11:36:48.549Z,8.44
2022-12-25T11:39:28.413Z,8.41
2022-12-25T11:42:07.092Z,8.43
2022-12-25T11:44:43.818Z,8.49
2022-12-25T11:47:35.684Z,8.51
2022-12-25T11:50:20.376Z,8.52
2022-12-25T11:52:48.145Z,8.57
2022-12-25T11:55:26.738Z,8.60
2022-12-25T11:57:57.801Z,8.62
2022-12-25T12:00:24.773Z,8.64
2022-12-25T12:02:58.801Z,8.67
2022-12-25T12:05:43.134Z,8.67
2022-12-25T12:08:10.675Z,8.67
2022-12-25T12:11:17.784Z,8.63
2022-12-25T12:14:05.342Z,8.60
2022-12-25T12:16:32.114Z,8.62
2022-12-25T12:18:58.581Z,8.64
2022-12-25T12:21:28.516Z,8.62
2022-12-25T12:24:01.374Z,8.66
2022-12-25T12:26:30.804Z,8.67
2022-12-25T12:29:03.520Z,8.68
2022-12-25T12:31:43.461Z,8.69
2022-12-25T12:34:26.915Z,8.67
2022-12-25T12:37:01.040Z,8.69
2022-12-25T12:39:35.211Z,8.68
2022-12-25T12:42:02.292Z,8.67
2022-12-25T12:44:33.700Z,8.64
2022-12-25T12:47:00.117Z,8.64
2022-12-25T12:49:29.355Z,8.63
2022-12-25T12:52:20.451Z,8.60
2022-12-25T12:54:59.440Z,8.60
2022-12-25T12:57:29.864Z,8.60
2022-12-25T12:59:59.960Z,8.57
2022-12-25T13:03:23.290Z,8.56
2022-12-25T13:05:56.192Z,8.55
2022-12-25T13:08:35.930Z,8.56
2022-12-25T13:11:10.479Z,8.56
2022-12-25T13:13:40.916Z,8.53
2022-12-25T13:16:23.141Z,8.52
2022-12-25T13:18:52.113Z,8.52
2022-12-25T13:21:23.523Z,8.52
2022-12-25T13:23:56.435Z,8.52
2022-12-25T13:26:25.723Z,8.54
2022-12-25T13:28:52.225Z,8.51
2022-12-25T13:31:21.725Z,8.51
2022-12-25T13:34:06.786Z,8.50
2022-12-25T13:36:40.057Z,8.51
2022-12-25T13:39:16.394Z,8.49
2022-12-25T13:42:05.276Z,8.48
2022-12-25T13:44:53.925Z,8.49
2022-12-25T13:47:39.456Z,8.46
2022-12-25T13:50:25.220Z,8.46
2022-12-25T13:52:52.721Z,8.45
2022-12-25T13:55:22.081Z,8.47
2022-12-25T13:57:55.339Z,8.46
2022-12-25T14:00:48.460Z,8.44
2022-12-25T14:03:27.843Z,8.42
2022-12-25T14:05:59.154Z,8.42
2022-12-25T14:08:28.725Z,8.42
2022-12-25T14:10:56.768Z,8.42
2022-12-25T14:13:27.728Z,8.43
2022-12-25T14:15:56.491Z,8.45
2022-12-25T14:18:24.774Z,8.44
2022-12-25T14:21:02.403Z,8.45
2022-12-25T14:23:42.760Z,8.45
2022-12-25T14:26:30.408Z,8.46
2022-12-25T14:29:05.786Z,8.45
2022-12-25T14:31:33.118Z,8.46
2022-12-25T14:34:01.913Z,8.46
2022-12-25T14:36:30.862Z,8.46
2022-12-25T14:39:03.624Z,8.46
2022-12-25T14:41:38.412Z,8.46
2022-12-25T14:44:26.553Z,8.48
2022-12-25T14:47:13.796Z,8.45
2022-12-25T14:49:40.941Z,8.43
2022-12-25T14:52:29.835Z,8.44
2022-12-25T14:55:12.013Z,8.45
2022-12-25T14:57:40.544Z,8.44
2022-12-25T15:00:24.500Z,8.45
2022-12-25T15:02:54.675Z,8.48
2022-12-25T15:05:28.928Z,8.49
2022-12-25T15:08:03.151Z,8.49
2022-12-25T15:13:20.043Z,8.48
2022-12-25T15:15:51.840Z,8.47
2022-12-25T15:18:20.348Z,8.47
2022-12-25T15:20:46.863Z,8.46
2022-12-25T15:23:20.219Z,8.47
2022-12-25T15:25:47.560Z,8.46
2022-12-25T15:28:14.309Z,8.46
2022-12-25T15:30:40.931Z,8.44
2022-12-25T15:33:09.172Z,8.47
2022-12-25T15:35:38.397Z,8.47
2022-12-25T15:38:05.433Z,8.44
2022-12-25T15:40:31.911Z,8.45
2022-12-25T15:42:58.341Z,8.46
2022-12-25T15:45:27.998Z,8.46
2022-12-25T15:47:54.523Z,8.44
2022-12-25T15:50:21.238Z,8.44
2022-12-25T15:52:48.453Z,8.43
2022-12-25T15:55:15.525Z,8.44
2022-12-25T15:57:44.208Z,8.45
2022-12-25T16:00:16.624Z,8.44
2022-12-25T16:02:43.421Z,8.44
2022-12-25T16:05:10.772Z,8.42
2022-12-25T16:07:37.521Z,8.40
2022-12-25T16:10:07.494Z,8.39
2022-12-25T16:12:33.924Z,8.37
2022-12-25T16:15:00.358Z,8.37
2022-12-25T16:17:26.811Z,8.37
2022-12-25T16:19:53.384Z,8.36
2022-12-25T16:22:25.880Z,8.37
2022-12-25T16:24:52.855Z,8.38
2022-12-25T16:27:19.603Z,8.38
2022-12-25T16:29:46.085Z,8.38
2022-12-25T16:32:13.800Z,8.39
2022-12-25T16:34:40.781Z,8.39
2022-12-25T16:37:07.615Z,8.37
2022-12-25T16:39:34.027Z,8.32
2022-12-25T16:42:00.693Z,8.31
2022-12-25T16:44:27.083Z,8.32
2022-12-25T16:46:53.602Z,8.32
2022-12-25T16:49:20.108Z,8.32
2022-12-25T16:51:46.453Z,8.29
2022-12-25T16:54:12.810Z,8.29
2022-12-25T16:56:39.218Z,8.31
2022-12-25T16:59:05.641Z,8.32
2022-12-25T17:01:32.171Z,8.32
2022-12-25T17:04:01.421Z,8.33
2022-12-25T17:06:28.705Z,8.33
2022-12-25T17:09:00.216Z,8.33
2022-12-25T17:11:30.215Z,8.33
2022-12-25T17:14:02.567Z,8.32
2022-12-25T17:16:31.975Z,8.34
2022-12-25T17:19:08.151Z,8.34
2022-12-25T17:21:35.437Z,8.34
2022-12-25T17:24:04.041Z,8.34
2022-12-25T17:26:32.132Z,8.34
2022-12-25T17:28:58.612Z,8.35
2022-12-25T17:31:25.160Z,8.35
2022-12-25T17:33:51.596Z,8.35
2022-12-25T17:36:20.354Z,8.35
2022-12-25T17:38:47.648Z,8.35
2022-12-25T17:41:16.827Z,8.35
2022-12-25T17:43:45.557Z,8.34
2022-12-25T17:46:18.727Z,8.34
2022-12-25T17:48:45.737Z,8.34
2022-12-25T17:51:16.250Z,8.35
2022-12-25T17:53:47.125Z,8.34
2022-12-25T17:56:14.381Z,8.34
2022-12-25T17:58:40.950Z,8.34
2022-12-25T18:01:15.848Z,8.33
2022-12-25T18:03:43.729Z,8.33
2022-12-25T18:06:15.536Z,8.31
2022-12-25T18:08:43.394Z,8.27
2022-12-25T18:11:16.271Z,8.25
2022-12-25T18:13:45.015Z,8.27
2022-12-25T18:16:13.127Z,8.28
2022-12-25T18:18:40.201Z,8.27
2022-12-25T18:21:07.430Z,8.24
2022-12-25T18:23:34.120Z,8.26
2022-12-25T18:26:02.587Z,8.24
2022-12-25T18:28:29.242Z,8.23
2022-12-25T18:30:55.703Z,8.23
2022-12-25T18:33:22.173Z,8.23
2022-12-25T18:35:48.798Z,8.24
2022-12-25T18:38:16.828Z,8.24
2022-12-25T18:40:45.244Z,8.26
2022-12-25T18:43:12.663Z,8.25
2022-12-25T18:45:39.464Z,8.26
2022-12-25T18:48:06.465Z,8.25
2022-12-25T18:50:34.890Z,8.24
2022-12-25T18:53:01.804Z,8.24
2022-12-25T18:55:28.616Z,8.24
2022-12-25T18:57:55.783Z,8.24
2022-12-25T19:00:22.971Z,8.24
2022-12-25T19:02:49.963Z,8.23
2022-12-25T19:05:16.846Z,8.23
2022-12-25T19:07:43.291Z,8.23
2022-12-25T19:10:10.465Z,8.22
2022-12-25T19:12:37.005Z,8.22
2022-12-25T19:15:03.672Z,8.22
2022-12-25T19:17:32.154Z,8.22
2022-12-25T19:19:58.972Z,8.21
2022-12-25T19:22:25.386Z,8.21
2022-12-25T19:24:51.833Z,8.20
2022-12-25T19:27:18.211Z,8.20
2022-12-25T19:29:44.673Z,8.18
2022-12-25T19:32:11.148Z,8.19
2022-12-25T19:34:37.801Z,8.20
2022-12-25T19:37:04.227Z,8.21
2022-12-25T19:39:30.743Z,8.21
2022-12-25T19:41:57.381Z,8.21
2022-12-25T19:44:23.837Z,8.20
2022-12-25T19:46:50.335Z,8.20
2022-12-25T19:49:16.861Z,8.18
2022-12-25T19:51:45.860Z,8.18
2022-12-25T19:54:18.791Z,8.18
2022-12-25T19:56:45.510Z,8.18
2022-12-25T19:59:13.109Z,8.18
2022-12-25T20:01:39.666Z,8.18
2022-12-25T20:04:08.704Z,8.17
2022-12-25T20:06:38.160Z,8.17
2022-12-25T20:09:12.582Z,8.18
2022-12-25T20:11:40.707Z,8.18
2022-12-25T20:14:08.305Z,8.18
2022-12-25T20:16:37.526Z,8.20
2022-12-25T20:19:05.063Z,8.20
2022-12-25T20:21:31.546Z,8.20
2022-12-25T20:23:58.153Z,8.21
2022-12-25T20:26:30.093Z,8.21
2022-12-25T20:28:56.732Z,8.20
2022-12-25T20:31:29.105Z,8.20
2022-12-25T20:33:57.618Z,8.21
2022-12-25T20:36:24.649Z,8.22
2022-12-25T20:38:51.744Z,8.22
2022-12-25T20:41:29.475Z,8.22
2022-12-25T20:43:56.752Z,8.23
2022-12-25T20:46:24.140Z,8.24
2022-12-25T20:48:51.918Z,8.24
2022-12-25T20:51:20.746Z,8.24
2022-12-25T20:53:48.313Z,8.24
2022-12-25T20:56:17.035Z,8.24
2022-12-25T20:58:43.464Z,8.24
2022-12-25T21:01:15.591Z,8.26
2022-12-25T21:03:42.842Z,8.24
2022-12-25T21:06:09.981Z,8.23
2022-12-25T21:08:36.669Z,8.24
2022-12-25T21:11:04.468Z,8.24
2022-12-25T21:13:35.596Z,8.25
2022-12-25T21:16:05.771Z,8.24
2022-12-25T21:18:32.289Z,8.25
2022-12-25T21:20:59.470Z,8.25
2022-12-25T21:23:26.718Z,8.26
2022-12-25T21:25:53.770Z,8.26
2022-12-25T21:28:20.651Z,8.28
2022-12-25T21:30:47.231Z,8.27
2022-12-25T21:33:32.890Z,8.29
2022-12-25T21:36:10.091Z,8.29
2022-12-25T21:38:37.949Z,8.30
2022-12-25T21:41:10.184Z,8.30
2022-12-25T21:43:38.755Z,8.30
2022-12-25T21:46:07.845Z,8.31
2022-12-25T21:48:36.130Z,8.32
2022-12-25T21:51:25.458Z,8.32
2022-12-25T21:53:51.919Z,8.34
2022-12-25T21:56:18.391Z,8.34
2022-12-25T21:58:44.867Z,8.37
2022-12-25T22:01:11.791Z,8.37
2022-12-25T22:03:38.381Z,8.37
2022-12-25T22:06:23.659Z,8.39
2022-12-25T22:08:50.077Z,8.39
2022-12-25T22:11:35.242Z,8.41
2022-12-25T22:14:20.096Z,8.42
2022-12-25T22:17:25.221Z,8.42
2022-12-25T22:19:51.850Z,8.42
2022-12-25T22:22:25.261Z,8.44
2022-12-25T22:24:54.472Z,8.44
2022-12-25T22:27:21.874Z,8.46
2022-12-25T22:29:48.433Z,8.46
2022-12-25T22:32:16.112Z,8.46
2022-12-25T22:34:42.923Z,8.47
2022-12-25T22:37:14.350Z,8.48
2022-12-25T22:39:40.955Z,8.48
2022-12-25T22:42:07.419Z,8.49
2022-12-25T22:44:33.885Z,8.49
2022-12-25T22:47:00.334Z,8.49
2022-12-25T22:49:27.332Z,8.49
2022-12-25T22:51:54.447Z,8.50
2022-12-25T22:54:24.077Z,8.50
2022-12-25T22:56:52.529Z,8.50
2022-12-25T22:59:20.933Z,8.50
2022-12-25T23:01:47.678Z,8.50
2022-12-25T23:04:14.154Z,8.51
2022-12-25T23:06:41.004Z,8.53
2022-12-25T23:09:09.024Z,8.52
2022-12-25T23:11:36.436Z,8.52
2022-12-25T23:14:21.412Z,8.52
2022-12-25T23:16:47.857Z,8.52
2022-12-25T23:19:33.413Z,8.51
2022-12-25T23:22:18.843Z,8.53
2022-12-25T23:25:04.005Z,8.52
2022-12-25T23:27:30.437Z,8.54
2022-12-25T23:29:56.889Z,8.54
2022-12-25T23:32:25.273Z,8.54
2022-12-25T23:34:52.339Z,8.53
2022-12-25T23:37:19.369Z,8.53
2022-12-25T23:39:46.191Z,8.52
2022-12-25T23:42:12.641Z,8.52
2022-12-25T23:44:39.070Z,8.54
2022-12-25T23:47:05.568Z,8.55
2022-12-25T23:49:32.148Z,8.54
2022-12-25T23:51:58.733Z,8.56
2022-12-25T23:54:28.509Z,8.55
2022-12-25T23:56:57.509Z,8.56
2022-12-25T23:59:25.826Z,8.56
